sensor_id;sensor_type;location;lat;lon;timestamp;P1;durP1;ratioP1;P2;durP2;ratioP2
35324;SDS011;35135;47.510;19.036;2023-12-20T00:01:23;14.85;;;13.32;;
35324;SDS011;35135;47.510;19.036;2023-12-20T00:03:49;14.73;;;13.23;;
35324;SDS011;35135;47.510;19.036;2023-12-20T00:06:14;15.38;;;13.73;;
35324;SDS011;35135;47.510;19.036;2023-12-20T00:08:40;14.13;;;12.73;;
35324;SDS011;35135;47.510;19.036;2023-12-20T00:11:06;15.13;;;13.40;;
35324;SDS011;35135;47.510;19.036;2023-12-20T00:13:31;14.40;;;12.80;;
35324;SDS011;35135;47.510;19.036;2023-12-20T00:15:57;13.85;;;12.45;;
35324;SDS011;35135;47.510;19.036;2023-12-20T00:18:23;15.77;;;13.68;;
35324;SDS011;35135;47.510;19.036;2023-12-20T00:20:49;15.02;;;12.88;;
35324;SDS011;35135;47.510;19.036;2023-12-20T00:23:15;15.07;;;13.57;;
35324;SDS011;35135;47.510;19.036;2023-12-20T00:25:40;14.95;;;13.10;;
35324;SDS011;35135;47.510;19.036;2023-12-20T00:28:06;14.70;;;13.10;;
35324;SDS011;35135;47.510;19.036;2023-12-20T00:30:32;13.90;;;12.60;;
35324;SDS011;35135;47.510;19.036;2023-12-20T00:32:57;14.00;;;12.43;;
35324;SDS011;35135;47.510;19.036;2023-12-20T00:35:23;13.90;;;12.40;;
35324;SDS011;35135;47.510;19.036;2023-12-20T00:37:49;14.70;;;13.20;;
35324;SDS011;35135;47.510;19.036;2023-12-20T00:40:14;14.60;;;13.10;;
35324;SDS011;35135;47.510;19.036;2023-12-20T00:42:40;14.00;;;12.50;;
35324;SDS011;35135;47.510;19.036;2023-12-20T00:45:06;13.55;;;12.15;;
35324;SDS011;35135;47.510;19.036;2023-12-20T00:47:32;14.07;;;12.38;;
35324;SDS011;35135;47.510;19.036;2023-12-20T00:49:58;14.93;;;13.43;;
35324;SDS011;35135;47.510;19.036;2023-12-20T00:52:24;14.93;;;12.63;;
35324;SDS011;35135;47.510;19.036;2023-12-20T00:54:50;14.13;;;12.77;;
35324;SDS011;35135;47.510;19.036;2023-12-20T00:57:16;14.30;;;12.65;;
35324;SDS011;35135;47.510;19.036;2023-12-20T00:59:41;14.65;;;13.10;;
35324;SDS011;35135;47.510;19.036;2023-12-20T01:02:07;13.55;;;12.13;;
35324;SDS011;35135;47.510;19.036;2023-12-20T01:04:34;13.63;;;12.23;;
35324;SDS011;35135;47.510;19.036;2023-12-20T01:06:59;14.10;;;12.68;;
35324;SDS011;35135;47.510;19.036;2023-12-20T01:09:25;13.88;;;12.32;;
35324;SDS011;35135;47.510;19.036;2023-12-20T01:11:54;14.63;;;13.00;;
35324;SDS011;35135;47.510;19.036;2023-12-20T01:14:19;14.18;;;12.77;;
35324;SDS011;35135;47.510;19.036;2023-12-20T01:16:45;14.70;;;13.07;;
35324;SDS011;35135;47.510;19.036;2023-12-20T01:19:11;14.27;;;12.88;;
35324;SDS011;35135;47.510;19.036;2023-12-20T01:21:38;14.60;;;12.50;;
35324;SDS011;35135;47.510;19.036;2023-12-20T01:24:04;14.30;;;12.80;;
35324;SDS011;35135;47.510;19.036;2023-12-20T01:26:30;13.98;;;12.68;;
35324;SDS011;35135;47.510;19.036;2023-12-20T01:28:55;13.93;;;12.30;;
35324;SDS011;35135;47.510;19.036;2023-12-20T01:31:21;14.02;;;12.52;;
35324;SDS011;35135;47.510;19.036;2023-12-20T01:33:46;12.95;;;11.65;;
35324;SDS011;35135;47.510;19.036;2023-12-20T01:36:12;14.68;;;13.18;;
35324;SDS011;35135;47.510;19.036;2023-12-20T01:38:38;14.20;;;12.18;;
35324;SDS011;35135;47.510;19.036;2023-12-20T01:41:04;13.90;;;12.43;;
35324;SDS011;35135;47.510;19.036;2023-12-20T01:43:29;15.05;;;12.73;;
35324;SDS011;35135;47.510;19.036;2023-12-20T01:45:58;12.82;;;11.52;;
35324;SDS011;35135;47.510;19.036;2023-12-20T01:48:24;13.43;;;12.13;;
35324;SDS011;35135;47.510;19.036;2023-12-20T01:50:51;14.18;;;12.55;;
35324;SDS011;35135;47.510;19.036;2023-12-20T01:53:17;12.70;;;11.40;;
35324;SDS011;35135;47.510;19.036;2023-12-20T01:55:46;13.68;;;11.80;;
35324;SDS011;35135;47.510;19.036;2023-12-20T01:58:13;14.02;;;12.30;;
35324;SDS011;35135;47.510;19.036;2023-12-20T02:00:40;12.77;;;11.48;;
35324;SDS011;35135;47.510;19.036;2023-12-20T02:03:06;13.52;;;12.13;;
35324;SDS011;35135;47.510;19.036;2023-12-20T02:05:32;14.38;;;12.90;;
35324;SDS011;35135;47.510;19.036;2023-12-20T02:07:59;13.70;;;12.30;;
35324;SDS011;35135;47.510;19.036;2023-12-20T02:10:25;13.40;;;11.98;;
35324;SDS011;35135;47.510;19.036;2023-12-20T02:12:52;13.20;;;11.80;;
35324;SDS011;35135;47.510;19.036;2023-12-20T02:15:17;12.98;;;11.57;;
35324;SDS011;35135;47.510;19.036;2023-12-20T02:17:43;14.43;;;12.48;;
35324;SDS011;35135;47.510;19.036;2023-12-20T02:20:10;13.55;;;12.23;;
35324;SDS011;35135;47.510;19.036;2023-12-20T02:22:36;12.65;;;11.35;;
35324;SDS011;35135;47.510;19.036;2023-12-20T02:25:01;12.98;;;11.65;;
35324;SDS011;35135;47.510;19.036;2023-12-20T02:27:27;12.80;;;11.45;;
35324;SDS011;35135;47.510;19.036;2023-12-20T02:29:54;12.20;;;10.88;;
35324;SDS011;35135;47.510;19.036;2023-12-20T02:32:21;13.27;;;11.93;;
35324;SDS011;35135;47.510;19.036;2023-12-20T02:34:48;12.95;;;11.65;;
35324;SDS011;35135;47.510;19.036;2023-12-20T02:37:14;11.70;;;10.50;;
35324;SDS011;35135;47.510;19.036;2023-12-20T02:39:39;13.40;;;12.10;;
35324;SDS011;35135;47.510;19.036;2023-12-20T02:42:05;12.73;;;11.43;;
35324;SDS011;35135;47.510;19.036;2023-12-20T02:44:31;11.73;;;10.52;;
35324;SDS011;35135;47.510;19.036;2023-12-20T02:46:56;13.10;;;11.70;;
35324;SDS011;35135;47.510;19.036;2023-12-20T02:49:22;12.95;;;11.65;;
35324;SDS011;35135;47.510;19.036;2023-12-20T02:51:48;12.80;;;11.50;;
35324;SDS011;35135;47.510;19.036;2023-12-20T02:54:13;12.85;;;11.60;;
35324;SDS011;35135;47.510;19.036;2023-12-20T02:56:39;13.13;;;11.80;;
35324;SDS011;35135;47.510;19.036;2023-12-20T02:59:05;12.55;;;11.27;;
35324;SDS011;35135;47.510;19.036;2023-12-20T03:01:31;12.65;;;11.35;;
35324;SDS011;35135;47.510;19.036;2023-12-20T03:03:57;12.48;;;11.27;;
35324;SDS011;35135;47.510;19.036;2023-12-20T03:06:22;12.75;;;11.48;;
35324;SDS011;35135;47.510;19.036;2023-12-20T03:08:48;12.98;;;11.68;;
35324;SDS011;35135;47.510;19.036;2023-12-20T03:11:14;12.95;;;11.65;;
35324;SDS011;35135;47.510;19.036;2023-12-20T03:13:40;12.52;;;11.23;;
35324;SDS011;35135;47.510;19.036;2023-12-20T03:16:14;11.90;;;10.73;;
35324;SDS011;35135;47.510;19.036;2023-12-20T03:18:41;13.25;;;11.85;;
35324;SDS011;35135;47.510;19.036;2023-12-20T03:21:07;12.13;;;10.93;;
35324;SDS011;35135;47.510;19.036;2023-12-20T03:23:32;12.20;;;11.00;;
35324;SDS011;35135;47.510;19.036;2023-12-20T03:25:58;12.35;;;11.15;;
35324;SDS011;35135;47.510;19.036;2023-12-20T03:28:25;12.45;;;11.15;;
35324;SDS011;35135;47.510;19.036;2023-12-20T03:30:51;12.13;;;10.93;;
35324;SDS011;35135;47.510;19.036;2023-12-20T03:33:17;12.85;;;11.52;;
35324;SDS011;35135;47.510;19.036;2023-12-20T03:35:43;13.07;;;11.40;;
35324;SDS011;35135;47.510;19.036;2023-12-20T03:38:09;12.27;;;10.98;;
35324;SDS011;35135;47.510;19.036;2023-12-20T03:40:34;12.77;;;11.48;;
35324;SDS011;35135;47.510;19.036;2023-12-20T03:43:00;12.15;;;10.95;;
35324;SDS011;35135;47.510;19.036;2023-12-20T03:45:26;11.90;;;10.75;;
35324;SDS011;35135;47.510;19.036;2023-12-20T03:47:51;11.85;;;10.68;;
35324;SDS011;35135;47.510;19.036;2023-12-20T03:50:24;12.43;;;11.13;;
35324;SDS011;35135;47.510;19.036;2023-12-20T03:52:50;12.63;;;11.43;;
35324;SDS011;35135;47.510;19.036;2023-12-20T03:55:16;12.32;;;11.02;;
35324;SDS011;35135;47.510;19.036;2023-12-20T03:57:42;12.45;;;11.15;;
35324;SDS011;35135;47.510;19.036;2023-12-20T04:00:08;12.80;;;11.57;;
35324;SDS011;35135;47.510;19.036;2023-12-20T04:02:37;11.85;;;10.65;;
35324;SDS011;35135;47.510;19.036;2023-12-20T04:05:03;12.23;;;11.07;;
35324;SDS011;35135;47.510;19.036;2023-12-20T04:07:30;12.68;;;11.38;;
35324;SDS011;35135;47.510;19.036;2023-12-20T04:09:55;11.43;;;10.25;;
35324;SDS011;35135;47.510;19.036;2023-12-20T04:12:21;12.63;;;11.43;;
35324;SDS011;35135;47.510;19.036;2023-12-20T04:14:47;12.52;;;11.32;;
35324;SDS011;35135;47.510;19.036;2023-12-20T04:17:12;12.02;;;10.82;;
35324;SDS011;35135;47.510;19.036;2023-12-20T04:19:38;12.23;;;10.95;;
35324;SDS011;35135;47.510;19.036;2023-12-20T04:22:04;11.98;;;10.73;;
35324;SDS011;35135;47.510;19.036;2023-12-20T04:24:30;12.57;;;11.35;;
35324;SDS011;35135;47.510;19.036;2023-12-20T04:26:56;12.05;;;10.90;;
35324;SDS011;35135;47.510;19.036;2023-12-20T04:29:21;12.18;;;10.98;;
35324;SDS011;35135;47.510;19.036;2023-12-20T04:31:47;11.68;;;10.48;;
35324;SDS011;35135;47.510;19.036;2023-12-20T04:34:12;13.20;;;11.90;;
35324;SDS011;35135;47.510;19.036;2023-12-20T04:36:38;11.95;;;10.70;;
35324;SDS011;35135;47.510;19.036;2023-12-20T04:39:04;12.35;;;11.15;;
35324;SDS011;35135;47.510;19.036;2023-12-20T04:41:29;11.30;;;10.20;;
35324;SDS011;35135;47.510;19.036;2023-12-20T04:43:55;12.65;;;11.35;;
35324;SDS011;35135;47.510;19.036;2023-12-20T04:46:21;12.73;;;11.50;;
35324;SDS011;35135;47.510;19.036;2023-12-20T04:48:46;11.88;;;10.65;;
35324;SDS011;35135;47.510;19.036;2023-12-20T04:51:12;12.15;;;10.95;;
35324;SDS011;35135;47.510;19.036;2023-12-20T04:53:38;11.70;;;10.50;;
35324;SDS011;35135;47.510;19.036;2023-12-20T04:56:03;12.40;;;11.15;;
35324;SDS011;35135;47.510;19.036;2023-12-20T04:58:29;11.15;;;10.05;;
35324;SDS011;35135;47.510;19.036;2023-12-20T05:00:55;12.07;;;10.82;;
35324;SDS011;35135;47.510;19.036;2023-12-20T05:03:20;12.02;;;10.82;;
35324;SDS011;35135;47.510;19.036;2023-12-20T05:05:46;11.55;;;10.45;;
35324;SDS011;35135;47.510;19.036;2023-12-20T05:08:11;12.52;;;11.07;;
35324;SDS011;35135;47.510;19.036;2023-12-20T05:10:37;11.52;;;10.35;;
35324;SDS011;35135;47.510;19.036;2023-12-20T05:13:03;11.40;;;10.25;;
35324;SDS011;35135;47.510;19.036;2023-12-20T05:15:29;11.85;;;10.63;;
35324;SDS011;35135;47.510;19.036;2023-12-20T05:17:54;11.32;;;10.20;;
35324;SDS011;35135;47.510;19.036;2023-12-20T05:20:20;12.32;;;11.13;;
35324;SDS011;35135;47.510;19.036;2023-12-20T05:22:46;11.20;;;10.02;;
35324;SDS011;35135;47.510;19.036;2023-12-20T05:25:12;12.20;;;10.93;;
35324;SDS011;35135;47.510;19.036;2023-12-20T05:27:38;12.18;;;10.88;;
35324;SDS011;35135;47.510;19.036;2023-12-20T05:30:03;12.32;;;11.02;;
35324;SDS011;35135;47.510;19.036;2023-12-20T05:32:29;12.63;;;11.32;;
35324;SDS011;35135;47.510;19.036;2023-12-20T05:34:56;11.75;;;10.55;;
35324;SDS011;35135;47.510;19.036;2023-12-20T05:37:21;11.88;;;10.68;;
35324;SDS011;35135;47.510;19.036;2023-12-20T05:39:47;12.43;;;11.13;;
35324;SDS011;35135;47.510;19.036;2023-12-20T05:42:13;11.98;;;10.73;;
35324;SDS011;35135;47.510;19.036;2023-12-20T05:44:38;12.02;;;10.82;;
35324;SDS011;35135;47.510;19.036;2023-12-20T05:47:04;11.88;;;10.27;;
35324;SDS011;35135;47.510;19.036;2023-12-20T05:49:30;12.50;;;10.80;;
35324;SDS011;35135;47.510;19.036;2023-12-20T05:51:56;12.27;;;10.82;;
35324;SDS011;35135;47.510;19.036;2023-12-20T05:54:22;12.13;;;10.93;;
35324;SDS011;35135;47.510;19.036;2023-12-20T05:56:48;11.73;;;10.52;;
35324;SDS011;35135;47.510;19.036;2023-12-20T05:59:14;11.02;;;9.30;;
35324;SDS011;35135;47.510;19.036;2023-12-20T06:01:39;10.80;;;9.65;;
35324;SDS011;35135;47.510;19.036;2023-12-20T06:04:05;12.63;;;10.52;;
35324;SDS011;35135;47.510;19.036;2023-12-20T06:06:31;11.10;;;9.93;;
35324;SDS011;35135;47.510;19.036;2023-12-20T06:08:56;11.27;;;10.07;;
35324;SDS011;35135;47.510;19.036;2023-12-20T06:11:23;11.70;;;9.77;;
35324;SDS011;35135;47.510;19.036;2023-12-20T06:13:49;12.38;;;10.80;;
35324;SDS011;35135;47.510;19.036;2023-12-20T06:16:17;10.98;;;9.88;;
35324;SDS011;35135;47.510;19.036;2023-12-20T06:18:43;11.20;;;9.73;;
35324;SDS011;35135;47.510;19.036;2023-12-20T06:21:09;12.95;;;9.88;;
35324;SDS011;35135;47.510;19.036;2023-12-20T06:23:37;14.93;;;11.43;;
35324;SDS011;35135;47.510;19.036;2023-12-20T06:26:03;12.38;;;11.07;;
35324;SDS011;35135;47.510;19.036;2023-12-20T06:28:29;12.63;;;10.35;;
35324;SDS011;35135;47.510;19.036;2023-12-20T06:30:55;12.23;;;10.40;;
35324;SDS011;35135;47.510;19.036;2023-12-20T06:33:22;14.98;;;11.45;;
35324;SDS011;35135;47.510;19.036;2023-12-20T06:35:48;15.38;;;10.32;;
35324;SDS011;35135;47.510;19.036;2023-12-20T06:38:14;16.88;;;11.18;;
35324;SDS011;35135;47.510;19.036;2023-12-20T06:40:40;15.60;;;11.23;;
35324;SDS011;35135;47.510;19.036;2023-12-20T06:43:05;18.65;;;10.35;;
35324;SDS011;35135;47.510;19.036;2023-12-20T06:45:32;15.63;;;11.02;;
35324;SDS011;35135;47.510;19.036;2023-12-20T06:47:57;25.35;;;12.45;;
35324;SDS011;35135;47.510;19.036;2023-12-20T06:50:23;15.18;;;10.23;;
35324;SDS011;35135;47.510;19.036;2023-12-20T06:52:49;17.35;;;11.45;;
35324;SDS011;35135;47.510;19.036;2023-12-20T06:55:15;15.32;;;11.48;;
35324;SDS011;35135;47.510;19.036;2023-12-20T06:57:40;16.42;;;11.15;;
35324;SDS011;35135;47.510;19.036;2023-12-20T07:00:06;14.98;;;11.00;;
35324;SDS011;35135;47.510;19.036;2023-12-20T07:02:33;18.73;;;11.80;;
35324;SDS011;35135;47.510;19.036;2023-12-20T07:04:59;13.63;;;10.88;;
35324;SDS011;35135;47.510;19.036;2023-12-20T07:07:25;19.58;;;11.43;;
35324;SDS011;35135;47.510;19.036;2023-12-20T07:09:51;17.00;;;12.98;;
35324;SDS011;35135;47.510;19.036;2023-12-20T07:12:17;21.73;;;12.00;;
35324;SDS011;35135;47.510;19.036;2023-12-20T07:14:46;19.90;;;12.50;;
35324;SDS011;35135;47.510;19.036;2023-12-20T07:17:12;13.85;;;11.82;;
35324;SDS011;35135;47.510;19.036;2023-12-20T07:19:40;18.65;;;11.90;;
35324;SDS011;35135;47.510;19.036;2023-12-20T07:22:07;17.55;;;12.27;;
35324;SDS011;35135;47.510;19.036;2023-12-20T07:24:33;17.90;;;12.00;;
35324;SDS011;35135;47.510;19.036;2023-12-20T07:26:59;16.38;;;12.18;;
35324;SDS011;35135;47.510;19.036;2023-12-20T07:29:25;18.00;;;11.35;;
35324;SDS011;35135;47.510;19.036;2023-12-20T07:31:52;19.05;;;12.15;;
35324;SDS011;35135;47.510;19.036;2023-12-20T07:34:19;15.55;;;12.07;;
35324;SDS011;35135;47.510;19.036;2023-12-20T07:36:45;14.90;;;11.82;;
35324;SDS011;35135;47.510;19.036;2023-12-20T07:39:11;17.42;;;11.60;;
35324;SDS011;35135;47.510;19.036;2023-12-20T07:41:36;15.32;;;11.88;;
35324;SDS011;35135;47.510;19.036;2023-12-20T07:44:04;18.25;;;12.48;;
35324;SDS011;35135;47.510;19.036;2023-12-20T07:46:29;18.25;;;12.13;;
35324;SDS011;35135;47.510;19.036;2023-12-20T07:48:55;19.77;;;12.55;;
35324;SDS011;35135;47.510;19.036;2023-12-20T07:51:21;16.40;;;12.20;;
35324;SDS011;35135;47.510;19.036;2023-12-20T07:53:47;17.27;;;12.20;;
35324;SDS011;35135;47.510;19.036;2023-12-20T07:56:19;16.50;;;11.85;;
35324;SDS011;35135;47.510;19.036;2023-12-20T07:58:45;14.00;;;12.50;;
35324;SDS011;35135;47.510;19.036;2023-12-20T08:01:13;16.65;;;12.10;;
35324;SDS011;35135;47.510;19.036;2023-12-20T08:03:40;16.13;;;12.05;;
35324;SDS011;35135;47.510;19.036;2023-12-20T08:06:06;16.45;;;11.68;;
35324;SDS011;35135;47.510;19.036;2023-12-20T08:08:32;16.00;;;12.63;;
35324;SDS011;35135;47.510;19.036;2023-12-20T08:10:57;15.68;;;13.10;;
35324;SDS011;35135;47.510;19.036;2023-12-20T08:13:25;15.80;;;12.63;;
35324;SDS011;35135;47.510;19.036;2023-12-20T08:15:51;15.93;;;12.35;;
35324;SDS011;35135;47.510;19.036;2023-12-20T08:18:17;16.20;;;11.82;;
35324;SDS011;35135;47.510;19.036;2023-12-20T08:20:43;14.02;;;12.40;;
35324;SDS011;35135;47.510;19.036;2023-12-20T08:23:09;15.60;;;11.77;;
35324;SDS011;35135;47.510;19.036;2023-12-20T08:25:35;14.65;;;11.93;;
35324;SDS011;35135;47.510;19.036;2023-12-20T08:28:03;15.45;;;12.18;;
35324;SDS011;35135;47.510;19.036;2023-12-20T08:30:30;16.48;;;12.02;;
35324;SDS011;35135;47.510;19.036;2023-12-20T08:32:56;13.10;;;11.70;;
35324;SDS011;35135;47.510;19.036;2023-12-20T08:35:22;16.17;;;12.93;;
35324;SDS011;35135;47.510;19.036;2023-12-20T08:37:49;12.77;;;11.43;;
35324;SDS011;35135;47.510;19.036;2023-12-20T08:40:14;14.70;;;12.43;;
35324;SDS011;35135;47.510;19.036;2023-12-20T08:42:40;15.73;;;12.68;;
35324;SDS011;35135;47.510;19.036;2023-12-20T08:45:06;17.05;;;12.05;;
35324;SDS011;35135;47.510;19.036;2023-12-20T08:47:32;15.25;;;12.85;;
35324;SDS011;35135;47.510;19.036;2023-12-20T08:49:57;12.98;;;11.45;;
35324;SDS011;35135;47.510;19.036;2023-12-20T08:52:25;15.13;;;12.73;;
35324;SDS011;35135;47.510;19.036;2023-12-20T08:54:52;16.83;;;12.82;;
35324;SDS011;35135;47.510;19.036;2023-12-20T08:57:21;13.48;;;11.70;;
35324;SDS011;35135;47.510;19.036;2023-12-20T08:59:50;13.88;;;11.75;;
35324;SDS011;35135;47.510;19.036;2023-12-20T09:02:16;17.58;;;12.38;;
35324;SDS011;35135;47.510;19.036;2023-12-20T09:04:42;14.15;;;12.40;;
35324;SDS011;35135;47.510;19.036;2023-12-20T09:07:23;14.00;;;12.57;;
35324;SDS011;35135;47.510;19.036;2023-12-20T09:09:50;16.63;;;13.00;;
35324;SDS011;35135;47.510;19.036;2023-12-20T09:12:17;14.02;;;12.38;;
35324;SDS011;35135;47.510;19.036;2023-12-20T09:14:44;14.77;;;12.32;;
35324;SDS011;35135;47.510;19.036;2023-12-20T09:17:10;15.80;;;12.45;;
35324;SDS011;35135;47.510;19.036;2023-12-20T09:19:37;14.32;;;12.65;;
35324;SDS011;35135;47.510;19.036;2023-12-20T09:22:03;13.93;;;12.23;;
35324;SDS011;35135;47.510;19.036;2023-12-20T09:24:30;16.15;;;13.13;;
35324;SDS011;35135;47.510;19.036;2023-12-20T09:26:55;14.45;;;12.88;;
35324;SDS011;35135;47.510;19.036;2023-12-20T09:29:21;14.18;;;12.43;;
35324;SDS011;35135;47.510;19.036;2023-12-20T09:31:47;15.48;;;13.00;;
35324;SDS011;35135;47.510;19.036;2023-12-20T09:34:14;15.50;;;12.93;;
35324;SDS011;35135;47.510;19.036;2023-12-20T09:36:42;13.70;;;12.13;;
35324;SDS011;35135;47.510;19.036;2023-12-20T09:39:14;14.90;;;12.80;;
35324;SDS011;35135;47.510;19.036;2023-12-20T09:41:44;14.30;;;12.57;;
35324;SDS011;35135;47.510;19.036;2023-12-20T09:44:14;14.90;;;13.25;;
35324;SDS011;35135;47.510;19.036;2023-12-20T09:46:43;14.15;;;12.32;;
35324;SDS011;35135;47.510;19.036;2023-12-20T09:49:11;14.10;;;12.70;;
35324;SDS011;35135;47.510;19.036;2023-12-20T09:51:37;13.30;;;12.00;;
35324;SDS011;35135;47.510;19.036;2023-12-20T09:54:04;13.75;;;12.30;;
35324;SDS011;35135;47.510;19.036;2023-12-20T09:56:30;14.63;;;13.07;;
35324;SDS011;35135;47.510;19.036;2023-12-20T09:58:56;16.23;;;13.27;;
35324;SDS011;35135;47.510;19.036;2023-12-20T10:01:22;15.02;;;13.40;;
35324;SDS011;35135;47.510;19.036;2023-12-20T10:04:08;14.23;;;12.25;;
35324;SDS011;35135;47.510;19.036;2023-12-20T10:06:41;14.68;;;12.55;;
35324;SDS011;35135;47.510;19.036;2023-12-20T10:09:10;13.95;;;12.48;;
35324;SDS011;35135;47.510;19.036;2023-12-20T10:11:36;14.63;;;13.10;;
35324;SDS011;35135;47.510;19.036;2023-12-20T10:14:04;13.63;;;11.88;;
35324;SDS011;35135;47.510;19.036;2023-12-20T10:16:30;14.93;;;12.98;;
35324;SDS011;35135;47.510;19.036;2023-12-20T10:18:57;13.32;;;11.95;;
35324;SDS011;35135;47.510;19.036;2023-12-20T10:21:23;15.85;;;13.60;;
35324;SDS011;35135;47.510;19.036;2023-12-20T10:23:51;17.15;;;13.38;;
35324;SDS011;35135;47.510;19.036;2023-12-20T10:26:19;16.65;;;13.45;;
35324;SDS011;35135;47.510;19.036;2023-12-20T10:28:46;14.25;;;12.52;;
35324;SDS011;35135;47.510;19.036;2023-12-20T10:33:57;14.57;;;12.65;;
35324;SDS011;35135;47.510;19.036;2023-12-20T10:36:26;15.27;;;13.18;;
35324;SDS011;35135;47.510;19.036;2023-12-20T10:38:53;13.93;;;12.43;;
35324;SDS011;35135;47.510;19.036;2023-12-20T10:41:31;17.80;;;12.85;;
35324;SDS011;35135;47.510;19.036;2023-12-20T10:44:04;16.40;;;12.73;;
35324;SDS011;35135;47.510;19.036;2023-12-20T10:46:30;15.27;;;12.77;;
35324;SDS011;35135;47.510;19.036;2023-12-20T10:48:57;16.55;;;13.65;;
35324;SDS011;35135;47.510;19.036;2023-12-20T10:51:24;13.68;;;12.27;;
35324;SDS011;35135;47.510;19.036;2023-12-20T10:53:55;14.63;;;13.10;;
35324;SDS011;35135;47.510;19.036;2023-12-20T10:56:21;14.55;;;12.98;;
35324;SDS011;35135;47.510;19.036;2023-12-20T10:58:48;15.55;;;13.52;;
35324;SDS011;35135;47.510;19.036;2023-12-20T11:01:15;17.90;;;13.15;;
35324;SDS011;35135;47.510;19.036;2023-12-20T11:03:52;15.20;;;13.52;;
35324;SDS011;35135;47.510;19.036;2023-12-20T11:06:36;16.10;;;13.15;;
35324;SDS011;35135;47.510;19.036;2023-12-20T11:09:23;16.00;;;14.30;;
35324;SDS011;35135;47.510;19.036;2023-12-20T11:11:56;15.75;;;12.93;;
35324;SDS011;35135;47.510;19.036;2023-12-20T11:14:31;23.35;;;13.48;;
35324;SDS011;35135;47.510;19.036;2023-12-20T11:17:10;18.77;;;13.40;;
35324;SDS011;35135;47.510;19.036;2023-12-20T11:20:24;21.10;;;14.38;;
35324;SDS011;35135;47.510;19.036;2023-12-20T11:22:27;19.90;;;13.70;;
35324;SDS011;35135;47.510;19.036;2023-12-20T11:24:57;18.92;;;14.18;;
35324;SDS011;35135;47.510;19.036;2023-12-20T11:27:33;19.83;;;14.77;;
35324;SDS011;35135;47.510;19.036;2023-12-20T11:29:59;16.92;;;14.00;;
35324;SDS011;35135;47.510;19.036;2023-12-20T11:32:29;21.58;;;13.93;;
35324;SDS011;35135;47.510;19.036;2023-12-20T11:34:55;18.38;;;14.38;;
35324;SDS011;35135;47.510;19.036;2023-12-20T11:37:29;16.75;;;14.05;;
35324;SDS011;35135;47.510;19.036;2023-12-20T11:40:02;16.38;;;13.82;;
35324;SDS011;35135;47.510;19.036;2023-12-20T11:42:50;18.48;;;14.93;;
35324;SDS011;35135;47.510;19.036;2023-12-20T11:45:18;18.70;;;14.88;;
35324;SDS011;35135;47.510;19.036;2023-12-20T11:47:47;18.88;;;14.40;;
35324;SDS011;35135;47.510;19.036;2023-12-20T11:50:17;17.88;;;15.18;;
35324;SDS011;35135;47.510;19.036;2023-12-20T11:52:43;17.80;;;14.45;;
35324;SDS011;35135;47.510;19.036;2023-12-20T11:55:09;18.77;;;14.80;;
35324;SDS011;35135;47.510;19.036;2023-12-20T11:57:35;17.45;;;14.00;;
35324;SDS011;35135;47.510;19.036;2023-12-20T12:00:02;17.35;;;14.32;;
35324;SDS011;35135;47.510;19.036;2023-12-20T12:02:29;15.70;;;13.98;;
35324;SDS011;35135;47.510;19.036;2023-12-20T12:04:55;18.20;;;14.80;;
35324;SDS011;35135;47.510;19.036;2023-12-20T12:07:23;15.73;;;13.70;;
35324;SDS011;35135;47.510;19.036;2023-12-20T12:09:49;15.93;;;13.77;;
35324;SDS011;35135;47.510;19.036;2023-12-20T12:12:15;16.75;;;14.18;;
35324;SDS011;35135;47.510;19.036;2023-12-20T12:14:41;18.30;;;12.90;;
35324;SDS011;35135;47.510;19.036;2023-12-20T12:17:13;17.63;;;15.20;;
35324;SDS011;35135;47.510;19.036;2023-12-20T12:19:42;16.38;;;13.48;;
35324;SDS011;35135;47.510;19.036;2023-12-20T12:22:09;16.70;;;12.93;;
35324;SDS011;35135;47.510;19.036;2023-12-20T12:24:42;16.38;;;12.80;;
35324;SDS011;35135;47.510;19.036;2023-12-20T12:27:09;16.25;;;13.57;;
35324;SDS011;35135;47.510;19.036;2023-12-20T12:29:36;16.23;;;13.55;;
35324;SDS011;35135;47.510;19.036;2023-12-20T12:32:05;14.57;;;12.45;;
35324;SDS011;35135;47.510;19.036;2023-12-20T12:34:32;16.58;;;13.80;;
35324;SDS011;35135;47.510;19.036;2023-12-20T12:36:59;15.02;;;12.68;;
35324;SDS011;35135;47.510;19.036;2023-12-20T12:39:25;14.38;;;12.48;;
35324;SDS011;35135;47.510;19.036;2023-12-20T12:41:51;14.23;;;12.43;;
35324;SDS011;35135;47.510;19.036;2023-12-20T12:44:17;15.90;;;12.68;;
35324;SDS011;35135;47.510;19.036;2023-12-20T12:46:46;16.38;;;12.15;;
35324;SDS011;35135;47.510;19.036;2023-12-20T12:49:15;17.17;;;12.13;;
35324;SDS011;35135;47.510;19.036;2023-12-20T12:51:40;14.93;;;11.52;;
35324;SDS011;35135;47.510;19.036;2023-12-20T12:54:08;13.52;;;11.27;;
35324;SDS011;35135;47.510;19.036;2023-12-20T12:56:34;15.85;;;11.50;;
35324;SDS011;35135;47.510;19.036;2023-12-20T12:59:03;27.65;;;11.43;;
35324;SDS011;35135;47.510;19.036;2023-12-20T13:01:30;15.40;;;10.98;;
35324;SDS011;35135;47.510;19.036;2023-12-20T13:03:56;15.13;;;11.35;;
35324;SDS011;35135;47.510;19.036;2023-12-20T13:06:22;12.25;;;10.85;;
35324;SDS011;35135;47.510;19.036;2023-12-20T13:08:48;13.27;;;11.13;;
35324;SDS011;35135;47.510;19.036;2023-12-20T13:11:14;14.43;;;10.90;;
35324;SDS011;35135;47.510;19.036;2023-12-20T13:13:40;13.82;;;10.15;;
35324;SDS011;35135;47.510;19.036;2023-12-20T13:16:06;14.38;;;11.20;;
35324;SDS011;35135;47.510;19.036;2023-12-20T13:18:31;12.65;;;10.25;;
35324;SDS011;35135;47.510;19.036;2023-12-20T13:20:57;11.27;;;9.90;;
35324;SDS011;35135;47.510;19.036;2023-12-20T13:23:23;11.00;;;9.07;;
35324;SDS011;35135;47.510;19.036;2023-12-20T13:25:48;11.48;;;10.23;;
35324;SDS011;35135;47.510;19.036;2023-12-20T13:28:14;10.85;;;9.25;;
35324;SDS011;35135;47.510;19.036;2023-12-20T13:30:40;11.88;;;9.25;;
35324;SDS011;35135;47.510;19.036;2023-12-20T13:33:06;10.95;;;9.73;;
35324;SDS011;35135;47.510;19.036;2023-12-20T13:35:32;14.23;;;9.32;;
35324;SDS011;35135;47.510;19.036;2023-12-20T13:37:58;11.50;;;8.60;;
35324;SDS011;35135;47.510;19.036;2023-12-20T13:40:24;16.25;;;9.88;;
35324;SDS011;35135;47.510;19.036;2023-12-20T13:42:50;14.68;;;8.77;;
35324;SDS011;35135;47.510;19.036;2023-12-20T13:45:15;12.40;;;8.82;;
35324;SDS011;35135;47.510;19.036;2023-12-20T13:47:41;12.70;;;9.27;;
35324;SDS011;35135;47.510;19.036;2023-12-20T13:50:07;13.40;;;8.70;;
35324;SDS011;35135;47.510;19.036;2023-12-20T13:52:33;18.40;;;9.50;;
35324;SDS011;35135;47.510;19.036;2023-12-20T13:54:58;18.10;;;9.70;;
35324;SDS011;35135;47.510;19.036;2023-12-20T13:57:24;16.08;;;8.93;;
35324;SDS011;35135;47.510;19.036;2023-12-20T13:59:50;19.10;;;9.32;;
35324;SDS011;35135;47.510;19.036;2023-12-20T14:02:15;16.65;;;8.77;;
35324;SDS011;35135;47.510;19.036;2023-12-20T14:04:41;15.63;;;8.45;;
35324;SDS011;35135;47.510;19.036;2023-12-20T14:07:07;18.70;;;9.43;;
35324;SDS011;35135;47.510;19.036;2023-12-20T14:09:34;23.42;;;8.60;;
35324;SDS011;35135;47.510;19.036;2023-12-20T14:12:00;19.90;;;9.82;;